Time;durP1;ratioP1;P1;durP2;ratioP2;P2;SDS_P1;SDS_P2;PMS_P1;PMS_P2;Temp;Humidity;BMP_temperature;BMP_pressure;BME280_temperature;BME280_humidity;BME280_pressure;Samples;Min_cycle;Max_cycle;Signal;HPM_P1;HPM_P2
2022/01/26 00:06:59;;;;;;;131.27;49.92;;;5.70;99.90;;;;;;4989127;28;20046;-70
2022/01/26 00:09:26;;;;;;;135.85;52.15;;;5.70;99.90;;;;;;4987117;28;20031;-70
2022/01/26 00:11:52;;;;;;;124.90;49.97;;;5.70;99.90;;;;;;5015927;28;20095;-69
2022/01/26 00:14:18;;;;;;;132.57;51.58;;;5.70;99.90;;;;;;5052205;28;20033;-70
2022/01/26 00:16:44;;;;;;;137.70;53.45;;;5.70;99.90;;;;;;5046136;28;20096;-70
2022/01/26 00:19:20;;;;;;;138.55;53.95;;;5.80;99.90;;;;;;5048866;28;20055;-70
2022/01/26 00:21:51;;;;;;;137.18;54.20;;;5.70;99.90;;;;;;5040883;28;20022;-70
2022/01/26 00:27:35;;;;;;;142.90;54.97;;;5.80;99.90;;;;;;5045515;28;20810;-70
2022/01/26 00:31:12;;;;;;;142.60;56.05;;;5.80;99.90;;;;;;5041713;28;20106;-70
2022/01/26 00:38:35;;;;;;;155.68;61.17;;;5.80;99.90;;;;;;5051600;28;20573;-69
2022/01/26 00:41:06;;;;;;;163.20;58.55;;;5.80;99.90;;;;;;5046065;28;20529;-70
2022/01/26 00:43:34;;;;;;;169.10;65.10;;;5.80;99.90;;;;;;5045663;28;20306;-70
2022/01/26 00:46:01;;;;;;;160.90;63.10;;;5.90;99.90;;;;;;5052558;28;20045;-70
2022/01/26 00:48:31;;;;;;;169.48;63.05;;;5.80;99.90;;;;;;5048123;28;20021;-70
2022/01/26 00:51:00;;;;;;;164.05;59.50;;;5.80;99.90;;;;;;5053421;28;20021;-69
2022/01/26 00:53:32;;;;;;;166.55;64.88;;;5.90;99.90;;;;;;5051354;28;20021;-70
2022/01/26 00:55:58;;;;;;;;;;;5.90;99.90;;;;;;5045312;28;20036;-70
2022/01/26 00:58:24;;;;;;;185.73;65.00;;;5.90;99.90;;;;;;5048378;28;19916;-69
2022/01/26 01:00:49;;;;;;;180.70;68.00;;;5.90;99.90;;;;;;5053578;28;20092;-70
2022/01/26 01:03:16;;;;;;;180.07;67.07;;;6.00;99.90;;;;;;5050602;28;20033;-70
2022/01/26 01:05:53;;;;;;;175.73;65.82;;;5.90;99.90;;;;;;5053124;28;20043;-70
2022/01/26 01:08:22;;;;;;;181.43;69.93;;;5.90;99.90;;;;;;5047001;28;20338;-70
2022/01/26 01:10:49;;;;;;;187.57;66.65;;;5.90;99.90;;;;;;5052366;28;20075;-70
2022/01/26 01:13:19;;;;;;;187.10;68.07;;;5.90;99.90;;;;;;5035753;28;20115;-70
2022/01/26 01:15:47;;;;;;;188.43;68.45;;;5.80;99.90;;;;;;5052183;28;20110;-69
2022/01/26 01:18:29;;;;;;;199.48;70.43;;;5.80;99.90;;;;;;5055369;28;20017;-69
2022/01/26 01:26:44;;;;;;;206.15;76.78;;;5.80;99.90;;;;;;5053292;28;20036;-69
2022/01/26 01:29:11;;;;;;;201.57;74.28;;;5.80;99.90;;;;;;5045684;28;20030;-69
2022/01/26 01:31:53;;;;;;;191.57;68.38;;;5.70;99.90;;;;;;5047583;28;20033;-69
2022/01/26 01:34:25;;;;;;;197.85;71.07;;;5.80;99.90;;;;;;5029020;28;20104;-69
2022/01/26 01:36:52;;;;;;;197.80;71.28;;;5.80;99.90;;;;;;5048989;28;20025;-69
2022/01/26 01:39:19;;;;;;;203.55;73.30;;;5.80;99.90;;;;;;5050827;28;20025;-69
2022/01/26 01:41:47;;;;;;;209.73;73.90;;;5.70;99.90;;;;;;5049733;28;20032;-69
2022/01/26 01:44:14;;;;;;;206.98;73.55;;;5.80;99.90;;;;;;5036659;28;20098;-69
2022/01/26 01:46:41;;;;;;;210.60;75.07;;;5.80;99.90;;;;;;5050359;28;20032;-70
2022/01/26 01:49:08;;;;;;;190.90;70.22;;;5.80;99.90;;;;;;5045216;28;20092;-69
2022/01/26 01:51:38;;;;;;;214.07;74.07;;;5.80;99.90;;;;;;5052996;28;20017;-70
2022/01/26 01:54:09;;;;;;;206.90;70.65;;;5.80;99.90;;;;;;5036291;28;20029;-69
2022/01/26 01:56:38;;;;;;;200.25;74.70;;;5.80;99.90;;;;;;5046601;28;20025;-70
2022/01/26 01:59:04;;;;;;;201.88;75.22;;;5.90;99.90;;;;;;5050904;28;20108;-69
2022/01/26 02:01:29;;;;;;;204.32;71.55;;;5.80;99.90;;;;;;5053536;28;20025;-69
2022/01/26 02:03:55;;;;;;;200.40;73.63;;;5.80;99.90;;;;;;5050120;28;20036;-69
2022/01/26 02:06:22;;;;;;;192.95;70.05;;;5.80;99.90;;;;;;5051381;28;20467;-69
2022/01/26 02:08:47;;;;;;;203.60;75.88;;;5.80;99.90;;;;;;5045439;28;20021;-70
2022/01/26 02:11:14;;;;;;;198.82;69.95;;;5.80;99.90;;;;;;5052193;28;20036;-69
2022/01/26 02:16:37;;;;;;;191.85;68.00;;;5.70;99.90;;;;;;5021647;28;20033;-69
2022/01/26 02:59:50;;;;;;;166.35;59.90;;;5.30;99.90;;;;;;5042918;28;20037;-69
2022/01/26 03:02:41;;;;;;;155.52;53.97;;;5.40;99.90;;;;;;5050937;28;20025;-70
2022/01/26 03:05:07;;;;;;;165.07;58.72;;;5.50;99.90;;;;;;5043225;28;20045;-70
2022/01/26 03:13:27;;;;;;;158.98;58.47;;;5.30;99.90;;;;;;5030650;28;20496;-70
2022/01/26 03:15:58;;;;;;;153.88;56.38;;;5.40;99.90;;;;;;5046426;28;20072;-70
2022/01/26 03:21:10;;;;;;;166.02;63.55;;;5.40;99.90;;;;;;5045254;28;20385;-70
2022/01/26 03:34:11;;;;;;;166.88;59.10;;;5.20;99.90;;;;;;5048490;28;20033;-69
2022/01/26 03:36:50;;;;;;;157.93;57.15;;;5.30;99.90;;;;;;5041107;28;20045;-69
2022/01/26 03:39:18;;;;;;;157.82;57.75;;;5.30;99.90;;;;;;5050214;28;20021;-70
2022/01/26 03:44:12;;;;;;;162.50;60.22;;;5.50;99.90;;;;;;5051688;28;20123;-69
2022/01/26 03:46:38;;;;;;;172.43;64.50;;;5.50;99.90;;;;;;5049196;28;20111;-70
2022/01/26 03:49:05;;;;;;;160.90;61.53;;;5.40;99.90;;;;;;5047882;28;20505;-69
2022/01/26 03:51:31;;;;;;;164.25;60.72;;;5.50;99.90;;;;;;5049681;28;20060;-69
2022/01/26 03:53:57;;;;;;;172.57;61.22;;;5.50;99.90;;;;;;5045094;28;20126;-69
2022/01/26 03:56:22;;;;;;;160.65;60.17;;;5.60;99.90;;;;;;5043428;28;20029;-69
2022/01/26 03:58:48;;;;;;;159.80;60.15;;;5.60;99.90;;;;;;5032679;28;20048;-69
2022/01/26 04:01:14;;;;;;;152.95;57.85;;;5.70;99.90;;;;;;5044675;28;20420;-70
2022/01/26 04:03:39;;;;;;;168.45;63.03;;;5.60;99.90;;;;;;5061145;28;20056;-70
2022/01/26 04:06:05;;;;;;;161.98;62.53;;;5.60;99.90;;;;;;5043700;28;20034;-69
2022/01/26 04:08:33;;;;;;;171.63;63.22;;;5.50;99.90;;;;;;5049350;28;20057;-70
2022/01/26 04:13:37;;;;;;;162.00;59.67;;;5.60;99.90;;;;;;5051096;28;20033;-70
2022/01/26 04:16:03;;;;;;;159.70;57.00;;;5.70;99.90;;;;;;5044221;28;20488;-69
2022/01/26 04:18:34;;;;;;;161.35;59.40;;;5.70;99.90;;;;;;5045341;28;20503;-69
2022/01/26 04:21:07;;;;;;;164.05;61.72;;;5.70;99.90;;;;;;5049562;28;20025;-69
2022/01/26 04:23:50;;;;;;;155.70;57.72;;;5.70;99.90;;;;;;5048444;28;20454;-69
2022/01/26 04:26:20;;;;;;;164.43;59.53;;;5.70;99.90;;;;;;5044348;28;20044;-69
2022/01/26 04:28:53;;;;;;;157.27;59.22;;;5.70;99.90;;;;;;5044320;28;20461;-70
2022/01/26 04:31:20;;;;;;;169.85;60.83;;;5.60;99.90;;;;;;5049961;28;20036;-70
2022/01/26 04:33:46;;;;;;;165.40;61.65;;;5.60;99.90;;;;;;5033974;28;20377;-69
2022/01/26 04:36:17;;;;;;;170.10;63.97;;;5.60;99.90;;;;;;5045360;28;20024;-69
2022/01/26 04:38:48;;;;;;;167.27;65.15;;;5.60;99.90;;;;;;5031615;28;20542;-69
2022/01/26 04:43:45;;;;;;;167.07;64.38;;;5.50;99.90;;;;;;5050689;28;20052;-69
2022/01/26 04:46:10;;;;;;;165.25;60.90;;;5.60;99.90;;;;;;5046197;28;20106;-69
2022/01/26 04:48:36;;;;;;;171.00;60.95;;;5.60;99.90;;;;;;5049166;28;20473;-69
2022/01/26 04:51:02;;;;;;;167.05;61.92;;;5.50;99.90;;;;;;5048070;28;20123;-69
2022/01/26 04:53:27;;;;;;;165.60;60.88;;;5.60;99.90;;;;;;5051645;28;20053;-69
2022/01/26 04:55:53;;;;;;;161.65;57.65;;;5.60;99.90;;;;;;5044181;28;20060;-69
2022/01/26 04:58:19;;;;;;;161.82;60.33;;;5.60;99.90;;;;;;5032303;28;20045;-70
2022/01/26 05:00:45;;;;;;;157.80;58.33;;;5.50;99.90;;;;;;5043981;28;20029;-70
2022/01/26 05:03:11;;;;;;;151.77;56.70;;;5.60;99.90;;;;;;5047679;28;20104;-70
2022/01/26 05:05:36;;;;;;;154.68;57.60;;;5.60;99.90;;;;;;5050627;28;20067;-69
2022/01/26 05:08:02;;;;;;;153.07;57.15;;;5.70;99.90;;;;;;5049877;28;20056;-70
2022/01/26 05:10:28;;;;;;;159.30;56.75;;;5.70;99.90;;;;;;5030214;28;20031;-70
2022/01/26 05:12:54;;;;;;;156.25;58.13;;;5.70;99.90;;;;;;5043263;28;20100;-69
2022/01/26 05:15:23;;;;;;;153.75;56.33;;;5.70;99.90;;;;;;5051129;28;20033;-70
2022/01/26 05:17:48;;;;;;;157.60;55.38;;;5.70;99.90;;;;;;5048160;28;20013;-69
2022/01/26 05:20:14;;;;;;;154.30;56.30;;;5.70;99.90;;;;;;5046912;28;20487;-69
2022/01/26 05:22:41;;;;;;;147.70;55.90;;;5.70;99.90;;;;;;5031588;28;20024;-69
2022/01/26 05:25:07;;;;;;;153.48;57.13;;;5.60;99.90;;;;;;5048488;28;20060;-70
2022/01/26 05:27:33;;;;;;;148.75;56.75;;;5.60;99.90;;;;;;5028752;28;20470;-70
2022/01/26 05:29:59;;;;;;;147.57;54.60;;;5.50;99.90;;;;;;5029934;28;20029;-69
2022/01/26 05:32:26;;;;;;;149.35;58.00;;;5.60;99.90;;;;;;5052763;28;20623;-70
2022/01/26 05:34:51;;;;;;;150.02;52.72;;;5.60;99.90;;;;;;5044945;28;20022;-70
2022/01/26 05:37:17;;;;;;;157.70;57.20;;;5.60;99.90;;;;;;5052324;28;20025;-69
2022/01/26 05:39:43;;;;;;;161.82;59.58;;;5.70;99.90;;;;;;5052151;28;20092;-69
2022/01/26 05:42:08;;;;;;;155.73;57.80;;;5.70;99.90;;;;;;5052068;28;20067;-69
2022/01/26 05:44:34;;;;;;;151.57;58.03;;;5.60;99.90;;;;;;5045971;28;20045;-70
2022/01/26 05:47:00;;;;;;;166.35;58.63;;;5.70;99.90;;;;;;5053139;28;20025;-70
2022/01/26 05:49:26;;;;;;;161.60;56.92;;;5.60;99.90;;;;;;5046008;28;20147;-70
2022/01/26 05:51:52;;;;;;;156.70;58.83;;;5.50;99.90;;;;;;5052592;28;20036;-70
2022/01/26 05:54:19;;;;;;;153.05;54.38;;;5.50;99.90;;;;;;5050216;28;20036;-70
2022/01/26 05:56:47;;;;;;;146.80;56.65;;;5.50;99.90;;;;;;5048069;28;20103;-69
2022/01/26 05:59:19;;;;;;;154.18;57.38;;;5.40;99.90;;;;;;5044398;28;20037;-69
2022/01/26 06:01:45;;;;;;;156.00;57.03;;;5.50;99.90;;;;;;5052176;28;20493;-69
2022/01/26 06:04:11;;;;;;;146.80;53.53;;;5.50;99.90;;;;;;5047687;28;20798;-69
2022/01/26 06:06:36;;;;;;;148.90;55.05;;;5.50;99.90;;;;;;5047539;28;20036;-69
2022/01/26 06:09:02;;;;;;;154.98;55.78;;;5.50;99.90;;;;;;5050539;28;20029;-69
2022/01/26 06:11:27;;;;;;;161.40;58.45;;;5.50;99.90;;;;;;5049431;28;20109;-69
2022/01/26 06:13:55;;;;;;;164.48;59.72;;;5.50;99.90;;;;;;5052036;28;20082;-70
2022/01/26 06:16:21;;;;;;;162.55;60.03;;;5.50;99.90;;;;;;5051694;28;20105;-69
2022/01/26 06:18:46;;;;;;;162.48;55.92;;;5.40;99.90;;;;;;5051741;28;20021;-70
2022/01/26 06:21:12;;;;;;;162.88;57.42;;;5.50;99.90;;;;;;5043864;28;20112;-69
2022/01/26 06:23:38;;;;;;;165.32;60.60;;;5.50;99.90;;;;;;5048347;28;20034;-69
2022/01/26 06:26:03;;;;;;;168.15;57.88;;;5.50;99.90;;;;;;5049755;28;20415;-69
2022/01/26 06:28:29;;;;;;;166.43;58.53;;;5.50;99.90;;;;;;5047849;28;20032;-69
2022/01/26 06:31:00;;;;;;;163.60;58.25;;;5.50;99.90;;;;;;5053843;28;20090;-70
2022/01/26 06:33:27;;;;;;;169.80;58.63;;;5.40;99.90;;;;;;5050283;28;20100;-69
2022/01/26 06:35:53;;;;;;;171.52;60.70;;;5.40;99.90;;;;;;5049391;28;20381;-69
2022/01/26 06:38:19;;;;;;;158.10;56.45;;;5.40;99.90;;;;;;5049337;28;20025;-69
2022/01/26 06:40:44;;;;;;;179.98;59.90;;;5.50;99.90;;;;;;5051182;28;20030;-69
2022/01/26 06:43:14;;;;;;;168.95;57.67;;;5.50;99.90;;;;;;5054443;28;20025;-69
2022/01/26 06:46:02;;;;;;;173.38;61.78;;;5.40;99.90;;;;;;5050905;28;20504;-70
2022/01/26 06:50:57;;;;;;;180.35;60.95;;;5.40;99.90;;;;;;5051775;28;20029;-69
2022/01/26 06:53:22;;;;;;;172.57;59.60;;;5.40;99.90;;;;;;5051866;28;20472;-70
2022/01/26 06:55:48;;;;;;;180.32;61.28;;;5.20;99.90;;;;;;5043975;28;20033;-69
2022/01/26 06:58:13;;;;;;;184.70;63.05;;;5.30;99.90;;;;;;5049916;28;20037;-70
2022/01/26 07:00:39;;;;;;;183.90;60.13;;;5.20;99.90;;;;;;5050545;28;20021;-69
2022/01/26 07:03:05;;;;;;;173.60;59.25;;;5.20;99.90;;;;;;5050530;28;20465;-69
2022/01/26 07:05:30;;;;;;;172.93;60.15;;;5.10;99.90;;;;;;5053915;28;20055;-70
2022/01/26 07:07:56;;;;;;;189.45;62.25;;;5.10;99.90;;;;;;5044570;28;20033;-70
2022/01/26 07:10:22;;;;;;;186.23;61.38;;;5.00;99.90;;;;;;5047076;28;20037;-69
2022/01/26 07:12:47;;;;;;;183.68;64.65;;;5.00;99.90;;;;;;5048429;28;20112;-69
2022/01/26 07:23:35;;;;;;;185.70;63.28;;;4.90;99.90;;;;;;5043929;28;20044;-69
2022/01/26 07:26:01;;;;;;;195.27;67.20;;;5.00;99.90;;;;;;5045748;28;20041;-70
2022/01/26 07:28:29;;;;;;;188.05;62.42;;;5.10;99.90;;;;;;5046081;28;20072;-69
2022/01/26 07:30:55;;;;;;;190.30;62.42;;;5.10;99.90;;;;;;5047299;28;20540;-69
2022/01/26 07:33:20;;;;;;;195.63;64.85;;;5.10;99.90;;;;;;5047561;28;20112;-69
2022/01/26 07:35:46;;;;;;;190.57;64.22;;;5.10;99.90;;;;;;5053128;28;20025;-69
2022/01/26 07:38:11;;;;;;;189.55;63.00;;;5.10;99.90;;;;;;5048960;28;20039;-69
2022/01/26 07:40:39;;;;;;;195.40;67.40;;;5.00;99.90;;;;;;5029764;28;20394;-69
2022/01/26 07:43:05;;;;;;;178.57;60.00;;;5.00;99.90;;;;;;5045163;28;20036;-70
2022/01/26 07:45:31;;;;;;;193.93;62.40;;;5.00;99.90;;;;;;5049917;28;20037;-69
2022/01/26 07:47:57;;;;;;;183.52;61.42;;;5.00;99.90;;;;;;5043404;28;20029;-70
2022/01/26 07:50:22;;;;;;;196.68;64.75;;;5.00;99.90;;;;;;5049263;28;20021;-69
2022/01/26 07:52:49;;;;;;;185.45;63.17;;;5.00;99.90;;;;;;5047678;28;20482;-69
2022/01/26 07:55:17;;;;;;;179.85;61.97;;;5.00;99.90;;;;;;5049019;28;20165;-70
2022/01/26 07:57:45;;;;;;;199.82;67.45;;;5.00;99.90;;;;;;5045590;28;20452;-70
2022/01/26 08:00:12;;;;;;;193.68;66.45;;;4.90;99.90;;;;;;5050143;28;20036;-69
2022/01/26 08:02:37;;;;;;;189.40;63.83;;;4.90;99.90;;;;;;5048392;28;20025;-69
2022/01/26 08:05:03;;;;;;;192.60;64.88;;;4.80;99.90;;;;;;5050017;28;20017;-69
2022/01/26 08:07:29;;;;;;;194.80;65.43;;;4.90;99.90;;;;;;5048630;28;20033;-69
2022/01/26 08:09:54;;;;;;;207.27;68.43;;;4.90;99.90;;;;;;5050021;28;20025;-69
2022/01/26 08:12:21;;;;;;;205.05;66.55;;;4.90;99.90;;;;;;5049037;28;20079;-70
2022/01/26 08:14:47;;;;;;;208.43;67.30;;;4.90;99.90;;;;;;5044056;28;20041;-69
2022/01/26 08:17:16;;;;;;;202.45;67.93;;;4.80;99.90;;;;;;5049975;28;20068;-70
2022/01/26 08:19:42;;;;;;;192.98;64.43;;;4.90;99.90;;;;;;5049995;28;20415;-69
2022/01/26 08:22:08;;;;;;;196.05;63.60;;;4.90;99.90;;;;;;5049931;28;20131;-70
2022/01/26 08:24:34;;;;;;;197.13;65.65;;;4.80;99.90;;;;;;5041738;28;20473;-69
2022/01/26 08:27:09;;;;;;;209.13;67.35;;;4.80;99.90;;;;;;5044205;28;20076;-69
2022/01/26 08:29:49;;;;;;;201.48;63.53;;;4.90;99.90;;;;;;5042141;28;20513;-69
2022/01/26 08:32:14;;;;;;;195.07;64.65;;;5.00;99.90;;;;;;5044224;28;20043;-69
2022/01/26 08:34:41;;;;;;;204.38;66.90;;;5.00;99.90;;;;;;5047304;28;20037;-70
2022/01/26 08:37:07;;;;;;;191.43;62.60;;;4.90;99.90;;;;;;5051306;28;20120;-70
2022/01/26 08:39:33;;;;;;;202.45;64.93;;;4.90;99.90;;;;;;5049176;28;20040;-69
2022/01/26 08:42:00;;;;;;;205.43;63.17;;;5.00;99.90;;;;;;5041425;28;20029;-69
2022/01/26 08:44:26;;;;;;;196.73;60.80;;;5.00;99.90;;;;;;5047141;28;20048;-69
2022/01/26 08:46:52;;;;;;;209.48;65.45;;;5.00;99.90;;;;;;5043469;28;20033;-69
2022/01/26 08:49:19;;;;;;;205.10;61.53;;;5.00;99.90;;;;;;5046369;28;20420;-69
2022/01/26 08:51:48;;;;;;;204.02;60.67;;;5.00;99.90;;;;;;5046603;28;20036;-70
2022/01/26 08:54:15;;;;;;;218.93;64.90;;;5.00;99.90;;;;;;5043447;28;20026;-70
2022/01/26 08:56:41;;;;;;;197.18;59.45;;;4.90;99.90;;;;;;5051428;28;20041;-69
2022/01/26 08:59:07;;;;;;;209.85;58.50;;;5.00;99.90;;;;;;5047485;28;20035;-69
2022/01/26 09:01:32;;;;;;;197.77;59.40;;;5.00;99.90;;;;;;5045373;28;20025;-69
2022/01/26 09:03:58;;;;;;;201.18;59.58;;;5.00;99.90;;;;;;5050438;28;20480;-70
2022/01/26 09:06:24;;;;;;;205.68;59.97;;;5.00;99.90;;;;;;5053997;28;20065;-69
2022/01/26 09:08:58;;;;;;;192.57;59.72;;;5.00;99.90;;;;;;5049591;28;20025;-69
2022/01/26 09:11:24;;;;;;;190.68;58.40;;;5.10;99.90;;;;;;5052185;28;20427;-69
2022/01/26 09:13:56;;;;;;;191.20;57.08;;;5.10;99.90;;;;;;5052065;28;20021;-69
2022/01/26 09:16:24;;;;;;;188.60;58.50;;;5.10;99.90;;;;;;5049973;28;20025;-70
2022/01/26 09:18:54;;;;;;;187.13;57.72;;;5.10;99.90;;;;;;5053422;28;20059;-69
2022/01/26 09:21:21;;;;;;;196.77;57.70;;;5.10;99.90;;;;;;5047394;28;20021;-69
2022/01/26 09:23:47;;;;;;;187.73;59.40;;;5.10;99.90;;;;;;5051596;28;20480;-69
2022/01/26 09:26:13;;;;;;;191.55;58.80;;;5.10;99.90;;;;;;5051215;28;20041;-69
2022/01/26 09:28:39;;;;;;;198.98;64.03;;;5.00;99.90;;;;;;5055141;28;20088;-69
2022/01/26 09:31:05;;;;;;;193.60;60.78;;;5.10;99.90;;;;;;5052591;28;20032;-69
2022/01/26 09:33:31;;;;;;;198.35;61.90;;;5.10;99.90;;;;;;5053374;28;20154;-69
2022/01/26 09:35:57;;;;;;;184.52;57.00;;;5.10;99.90;;;;;;5053941;28;20036;-71
2022/01/26 09:38:22;;;;;;;198.55;58.67;;;5.10;99.90;;;;;;5054964;28;20013;-69
2022/01/26 09:40:49;;;;;;;178.48;58.40;;;5.20;99.90;;;;;;5053243;28;20167;-69
2022/01/26 09:43:17;;;;;;;172.02;56.55;;;5.20;99.90;;;;;;5046461;28;20024;-69
2022/01/26 09:45:46;;;;;;;188.32;57.38;;;5.20;99.90;;;;;;5053640;28;20033;-69
2022/01/26 09:48:13;;;;;;;185.55;57.60;;;5.20;99.90;;;;;;5053838;28;20397;-69
2022/01/26 09:50:43;;;;;;;163.57;54.15;;;5.20;99.90;;;;;;5050028;28;20384;-69
2022/01/26 09:53:16;;;;;;;173.93;55.30;;;5.30;99.90;;;;;;5051488;28;20024;-70
2022/01/26 09:55:42;;;;;;;181.57;55.40;;;5.30;99.90;;;;;;5052078;28;20032;-70
2022/01/26 09:58:09;;;;;;;176.55;53.40;;;5.20;99.90;;;;;;5052497;28;20577;-69
2022/01/26 10:00:34;;;;;;;184.07;59.53;;;5.30;99.90;;;;;;5052852;28;20061;-70
2022/01/26 10:03:03;;;;;;;157.45;52.50;;;5.30;99.90;;;;;;5049227;28;20106;-70
2022/01/26 10:05:44;;;;;;;177.40;57.47;;;5.20;99.90;;;;;;5051658;28;20140;-69
2022/01/26 10:08:24;;;;;;;172.23;57.33;;;5.30;99.90;;;;;;5031049;28;20032;-70
2022/01/26 10:19:09;;;;;;;160.10;54.80;;;5.30;99.90;;;;;;5052919;28;20037;-68
2022/01/26 10:21:49;;;;;;;171.25;58.47;;;5.30;99.90;;;;;;5050938;28;20250;-70
2022/01/26 10:24:16;;;;;;;172.15;54.90;;;5.40;99.90;;;;;;5053980;28;20052;-70
2022/01/26 10:26:48;;;;;;;166.20;53.85;;;5.30;99.90;;;;;;5028707;28;20029;-70
2022/01/26 10:29:15;;;;;;;144.45;50.08;;;5.20;99.90;;;;;;5050385;28;20370;-70
2022/01/26 10:31:41;;;;;;;162.80;52.28;;;5.20;99.90;;;;;;5044915;28;20024;-70
2022/01/26 10:34:11;;;;;;;149.85;50.53;;;5.30;99.90;;;;;;5045973;28;20102;-70
2022/01/26 10:36:45;;;;;;;163.70;51.30;;;5.30;99.90;;;;;;5045420;28;20433;-70
2022/01/26 10:39:19;;;;;;;160.35;54.28;;;5.20;99.90;;;;;;5048453;28;20029;-70
2022/01/26 10:41:45;;;;;;;165.55;54.17;;;5.30;99.90;;;;;;5050986;28;20095;-70
2022/01/26 10:44:11;;;;;;;157.70;51.28;;;5.30;99.90;;;;;;5048445;28;20025;-70
2022/01/26 10:46:42;;;;;;;159.05;57.20;;;5.30;99.90;;;;;;5051608;28;20052;-70
2022/01/26 10:54:37;;;;;;;154.30;52.13;;;5.50;99.90;;;;;;5050718;28;20445;-71
2022/01/26 10:57:08;;;;;;;153.23;52.83;;;5.40;99.90;;;;;;5046020;28;20038;-69
2022/01/26 10:59:40;;;;;;;161.20;53.75;;;5.50;99.90;;;;;;5050505;28;20385;-69
2022/01/26 11:05:01;;;;;;;150.23;54.85;;;5.40;99.90;;;;;;5188797;22;20144;-74
2022/01/26 11:07:40;;;;;;;149.82;53.95;;;5.50;99.90;;;;;;5080735;22;20132;-75
2022/01/26 11:10:08;;;;;;;139.68;50.50;;;5.50;99.90;;;;;;5031443;28;20057;-75
2022/01/26 11:12:37;;;;;;;148.45;49.90;;;5.50;99.90;;;;;;5048228;28;20017;-77
2022/01/26 11:15:06;;;;;;;138.68;49.30;;;5.50;99.90;;;;;;5050300;28;20026;-73
2022/01/26 11:17:36;;;;;;;147.38;51.85;;;5.60;99.90;;;;;;5051612;28;20032;-75
2022/01/26 11:20:17;;;;;;;140.98;50.35;;;5.50;99.90;;;;;;5049851;28;20512;-73
2022/01/26 11:22:58;;;;;;;145.43;53.35;;;5.60;99.90;;;;;;5051489;28;20029;-72
2022/01/26 11:25:27;;;;;;;148.98;52.00;;;5.70;99.90;;;;;;5051155;28;20041;-74
2022/01/26 11:27:54;;;;;;;145.40;52.80;;;5.70;99.90;;;;;;5032620;28;20025;-72
2022/01/26 11:30:32;;;;;;;136.50;52.15;;;5.70;99.90;;;;;;5050693;28;20594;-74
2022/01/26 11:32:59;;;;;;;140.40;54.08;;;5.70;99.90;;;;;;5052217;28;20484;-72
2022/01/26 11:35:28;;;;;;;141.73;50.65;;;5.60;99.90;;;;;;5057480;28;20534;-73
2022/01/26 11:39:14;;;;;;;133.27;49.03;;;5.60;99.90;;;;;;5047760;28;20622;-72
2022/01/26 11:47:00;;;;;;;134.05;48.30;;;5.60;99.90;;;;;;5049467;28;19970;-72
2022/01/26 11:49:37;;;;;;;134.95;47.95;;;5.60;99.90;;;;;;5051311;28;20069;-71
2022/01/26 11:52:05;;;;;;;142.20;51.50;;;5.60;99.90;;;;;;5052215;28;20029;-72
2022/01/26 11:54:55;;;;;;;146.73;50.20;;;5.70;99.90;;;;;;5050678;28;20025;-72
2022/01/26 11:57:36;;;;;;;137.77;50.10;;;5.60;99.90;;;;;;5051284;28;20077;-73
2022/01/26 12:00:07;;;;;;;146.40;54.55;;;5.70;99.90;;;;;;5046886;28;20448;-73
2022/01/26 12:05:17;;;;;;;126.88;50.53;;;5.70;99.90;;;;;;5050768;28;20053;-73
2022/01/26 12:08:01;;;;;;;134.93;52.20;;;5.80;99.90;;;;;;5067738;28;20029;-73
2022/01/26 12:10:32;;;;;;;142.45;53.83;;;5.70;99.90;;;;;;5069415;28;20119;-74
2022/01/26 12:13:09;;;;;;;136.65;49.58;;;5.70;99.90;;;;;;5070847;28;20029;-73
2022/01/26 12:15:54;;;;;;;138.32;49.88;;;5.90;99.90;;;;;;5069248;28;20071;-73
2022/01/26 12:38:01;;;;;;;115.53;44.22;;;5.90;99.90;;;;;;5070225;28;20093;-72
2022/01/26 12:43:20;;;;;;;128.87;46.70;;;5.90;99.90;;;;;;5073748;28;20139;-72
2022/01/26 12:45:53;;;;;;;118.63;43.03;;;5.90;99.90;;;;;;5074355;28;20032;-73
2022/01/26 12:48:18;;;;;;;122.78;45.97;;;5.90;99.90;;;;;;5073745;28;20102;-76
2022/01/26 12:50:44;;;;;;;119.35;46.65;;;5.90;99.90;;;;;;5073576;28;20107;-75
2022/01/26 12:53:10;;;;;;;117.95;47.05;;;5.90;99.90;;;;;;5073038;28;20028;-76
2022/01/26 12:55:37;;;;;;;126.68;47.25;;;5.80;99.90;;;;;;5075247;28;20059;-76
2022/01/26 12:58:04;;;;;;;116.00;46.17;;;5.80;99.90;;;;;;5073531;28;20024;-77
2022/01/26 13:00:42;;;;;;;112.68;44.20;;;5.90;99.90;;;;;;5074401;28;20024;-77
2022/01/26 13:03:13;;;;;;;110.22;43.92;;;6.00;99.90;;;;;;5074968;28;20063;-76
2022/01/26 13:05:39;;;;;;;117.13;49.92;;;6.00;99.90;;;;;;5073169;28;20119;-75
2022/01/26 13:08:06;;;;;;;112.15;42.65;;;6.00;99.90;;;;;;5071859;28;20020;-76
2022/01/26 13:10:33;;;;;;;106.75;45.53;;;6.10;99.90;;;;;;5073901;28;20376;-74
2022/01/26 13:13:13;;;;;;;109.45;43.67;;;6.10;99.90;;;;;;5074392;28;20472;-77
2022/01/26 13:15:46;;;;;;;112.50;44.22;;;6.10;99.90;;;;;;5072568;28;20135;-72
2022/01/26 13:18:44;;;;;;;110.95;44.75;;;6.10;99.90;;;;;;5068293;28;20377;-77
2022/01/26 13:25:15;;;;;;;109.47;40.92;;;6.10;99.90;;;;;;5047015;28;20037;-76
2022/01/26 13:30:11;;;;;;;113.80;43.38;;;6.10;99.90;;;;;;5074881;28;20025;-75
2022/01/26 13:50:38;;;;;;;103.65;40.75;;;6.10;99.90;;;;;;5072346;28;20059;-74
2022/01/26 13:53:18;;;;;;;102.55;41.78;;;6.00;99.90;;;;;;5073819;28;20017;-73
2022/01/26 13:56:12;;;;;;;108.88;42.72;;;6.00;99.90;;;;;;5074353;28;20033;-73
2022/01/26 13:58:48;;;;;;;107.30;40.67;;;6.00;99.90;;;;;;5070119;28;20027;-74
2022/01/26 14:01:19;;;;;;;102.35;42.53;;;6.10;99.90;;;;;;5071972;28;20028;-73
2022/01/26 14:03:48;;;;;;;107.15;41.17;;;6.20;99.90;;;;;;5071654;28;20024;-73
2022/01/26 14:06:14;;;;;;;103.55;40.65;;;6.20;99.90;;;;;;5069796;28;20071;-73
2022/01/26 14:08:41;;;;;;;100.55;40.85;;;6.10;99.90;;;;;;5071028;28;20106;-76
2022/01/26 14:11:07;;;;;;;107.22;41.80;;;6.10;99.90;;;;;;5073513;28;20555;-74
2022/01/26 14:13:35;;;;;;;99.38;42.13;;;6.10;99.90;;;;;;5069924;28;20376;-73
2022/01/26 14:16:01;;;;;;;105.10;42.58;;;6.10;99.90;;;;;;5071869;28;20496;-73
2022/01/26 14:18:43;;;;;;;110.72;43.30;;;6.20;99.90;;;;;;5053057;28;20086;-74
2022/01/26 14:26:18;;;;;;;98.93;40.72;;;6.20;99.90;;;;;;5071614;28;20467;-74
2022/01/26 14:28:44;;;;;;;101.22;41.75;;;6.20;99.90;;;;;;5072069;28;20009;-72
2022/01/26 14:53:13;;;;;;;87.32;37.00;;;6.10;99.90;;;;;;5067112;28;20125;-74
2022/01/26 14:55:30;;;;;;;97.85;39.85;;;6.20;99.90;;;;;;5070274;28;20041;-75
2022/01/26 15:08:44;;;;;;;98.43;39.83;;;6.30;99.90;;;;;;5068938;28;20029;-73
2022/01/26 15:08:47;;;;;;;97.05;39.78;;;6.20;99.90;;;;;;5067923;28;20068;-74
2022/01/26 15:12:10;;;;;;;99.50;39.65;;;6.20;99.90;;;;;;5068969;28;20032;-75
2022/01/26 15:29:55;;;;;;;102.68;41.35;;;6.20;99.90;;;;;;5072133;28;20101;-74
2022/01/26 15:34:39;;;;;;;97.53;39.58;;;6.00;99.90;;;;;;5065989;28;20109;-73
2022/01/26 15:44:46;;;;;;;110.30;44.45;;;6.00;99.90;;;;;;5069698;28;20120;-72
2022/01/26 15:50:10;;;;;;;101.90;39.80;;;6.00;99.90;;;;;;5065762;28;20059;-72
2022/01/26 15:53:03;;;;;;;114.65;42.80;;;6.00;99.90;;;;;;5065065;28;20036;-72
2022/01/26 15:58:28;;;;;;;105.78;39.92;;;5.90;99.90;;;;;;5067919;28;20501;-72
2022/01/26 16:06:44;;;;;;;105.93;41.90;;;5.90;99.90;;;;;;5069808;28;20124;-73
2022/01/26 16:20:16;;;;;;;112.03;42.83;;;6.00;99.90;;;;;;5068828;28;20029;-72
2022/01/26 18:15:22;;;;;;;99.70;37.33;;;5.70;99.90;;;;;;5070771;28;20495;-72
2022/01/26 18:26:05;;;;;;;95.43;35.17;;;5.60;99.90;;;;;;5072273;28;20079;-72
2022/01/26 18:50:06;;;;;;;101.00;37.25;;;5.50;99.90;;;;;;5072804;28;20035;-71
2022/01/26 18:52:32;;;;;;;95.75;34.67;;;5.50;99.90;;;;;;5072770;28;20056;-73
2022/01/26 18:54:58;;;;;;;97.78;35.42;;;5.50;99.90;;;;;;5071144;28;20383;-73
2022/01/26 18:57:24;;;;;;;88.18;33.95;;;5.50;99.90;;;;;;5069121;28;20990;-72
2022/01/26 18:59:49;;;;;;;100.22;36.58;;;5.50;99.90;;;;;;5070460;28;20530;-72
2022/01/26 19:02:15;;;;;;;98.80;36.60;;;5.50;99.90;;;;;;5070416;28;20025;-71
2022/01/26 19:04:45;;;;;;;96.45;35.78;;;5.40;99.90;;;;;;5068297;28;20033;-71
2022/01/26 19:07:11;;;;;;;99.85;35.85;;;5.40;99.90;;;;;;5071090;28;20067;-71
2022/01/26 19:09:43;;;;;;;96.53;37.65;;;5.40;99.90;;;;;;5071636;28;20048;-71
2022/01/26 19:12:13;;;;;;;95.70;36.28;;;5.30;99.90;;;;;;5070088;28;20016;-74
2022/01/26 19:14:43;;;;;;;95.55;36.33;;;5.40;99.90;;;;;;5070368;28;20062;-73
2022/01/26 19:17:25;;;;;;;93.28;35.13;;;5.50;99.90;;;;;;5071867;28;20099;-73